Time;durP1;ratioP1;P1;durP2;ratioP2;P2;SDS_P1;SDS_P2;PMS_P1;PMS_P2;Temp;Humidity;BMP_temperature;BMP_pressure;BME280_temperature;BME280_humidity;BME280_pressure;Samples;Min_cycle;Max_cycle;Signal;HPM_P1;HPM_P2
2023/05/17 07:18:55;;;;;;;1.30;0.40;;;;;;;12.98;79.99;97401.16;1697777;75;643241;-73
2023/05/17 07:21:26;;;;;;;0.20;0.20;;;;;;;12.84;74.57;97396.63;1698803;75;727052;-73
2023/05/17 07:23:56;;;;;;;1.65;0.30;;;;;;;12.80;76.73;97393.41;1708173;75;682269;-73
2023/05/17 07:26:26;;;;;;;1.55;0.30;;;;;;;12.74;77.58;97396.13;1699470;75;687531;-71
2023/05/17 07:28:56;;;;;;;0.50;0.30;;;;;;;13.09;80.13;97402.41;1706684;75;692014;-74
2023/05/17 07:31:26;;;;;;;0.30;0.20;;;;;;;12.86;72.96;97398.88;1698730;75;679531;-72
2023/05/17 07:33:59;;;;;;;0.30;0.10;;;;;;;12.92;71.41;97400.41;1706210;75;783826;-71
2023/05/17 07:36:30;;;;;;;0.30;0.20;;;;;;;13.06;73.45;97401.41;1698858;75;675065;-73
2023/05/17 07:39:00;;;;;;;0.55;0.30;;;;;;;13.03;73.51;97404.41;1707252;75;680398;-72
2023/05/17 07:41:32;;;;;;;2.20;1.10;;;;;;;13.14;73.93;97407.16;1699448;75;683638;-73
2023/05/17 07:44:02;;;;;;;1.80;1.00;;;;;;;13.15;74.44;97408.66;1707293;75;676970;-70
2023/05/17 07:46:32;;;;;;;1.70;0.60;;;;;;;13.04;73.25;97408.66;1699444;75;685406;-71
2023/05/17 07:49:05;;;;;;;5.00;0.50;;;;;;;13.10;71.40;97417.66;1707661;75;678911;-70
2023/05/17 07:51:36;;;;;;;1.60;0.50;;;;;;;13.18;73.73;97419.41;1699668;75;683289;-73
2023/05/17 07:54:07;;;;;;;0.70;0.30;;;;;;;13.27;69.66;97415.69;1706222;75;839685;-72
2023/05/17 07:56:37;;;;;;;1.55;0.20;;;;;;;13.38;69.50;97401.94;1699379;75;742925;-73
2023/05/17 07:59:08;;;;;;;0.80;0.60;;;;;;;13.56;70.59;97411.66;1707418;75;674132;-72
2023/05/17 08:01:38;;;;;;;0.50;0.20;;;;;;;13.49;70.18;97414.19;1696447;75;988896;-72
2023/05/17 08:04:12;;;;;;;1.15;0.50;;;;;;;13.55;68.73;97417.69;1707980;75;690883;-72
2023/05/17 08:06:44;;;;;;;0.20;0.20;;;;;;;13.48;69.25;97423.69;1699129;75;681825;-75
2023/05/17 08:09:14;;;;;;;0.50;0.40;;;;;;;13.68;67.00;97412.41;1705711;75;684393;-73
2023/05/17 08:11:47;;;;;;;0.30;0.20;;;;;;;13.50;66.73;97432.94;1700335;75;674040;-71
2023/05/17 08:14:19;;;;;;;0.25;0.20;;;;;;;13.54;67.53;97422.44;1708149;75;680781;-72
2023/05/17 08:16:50;;;;;;;0.30;0.25;;;;;;;13.51;66.30;97447.44;1699577;75;738712;-71
2023/05/17 08:19:23;;;;;;;0.60;0.20;;;;;;;13.70;66.91;97455.94;1705810;75;679578;-72
2023/05/17 08:21:53;;;;;;;0.40;0.20;;;;;;;13.61;67.78;97451.41;1685137;75;1880585;-72
2023/05/17 08:24:23;;;;;;;0.95;0.50;;;;;;;13.55;66.83;97453.44;1708744;75;689225;-71
2023/05/17 08:26:53;;;;;;;1.55;0.50;;;;;;;13.45;67.25;97457.69;1700977;75;740108;-72
2023/05/17 08:29:23;;;;;;;0.10;0.10;;;;;;;13.30;66.46;97458.69;1708837;75;695550;-73
2023/05/17 08:31:56;;;;;;;4.65;2.90;;;;;;;13.32;66.73;97461.66;1699657;75;751949;-74
2023/05/17 08:34:29;;;;;;;1.20;0.30;;;;;;;13.50;66.50;97465.94;1710599;75;675639;-71
2023/05/17 08:36:59;;;;;;;2.10;0.20;;;;;;;13.40;66.98;97465.44;1698042;75;957876;-71
2023/05/17 08:39:30;;;;;;;0.70;0.40;;;;;;;13.28;66.34;97466.69;1708689;75;676595;-73
2023/05/17 08:42:01;;;;;;;0.65;0.50;;;;;;;13.15;66.51;97467.13;1699711;75;735587;-73
2023/05/17 08:44:32;;;;;;;1.75;0.35;;;;;;;13.42;68.03;97470.41;1707943;75;678746;-73
2023/05/17 08:47:03;;;;;;;1.05;0.40;;;;;;;13.35;66.95;97457.94;1699054;75;761294;-73
2023/05/17 08:49:37;;;;;;;0.70;0.40;;;;;;;13.38;67.21;97465.19;1706359;75;687596;-73
2023/05/17 08:52:11;;;;;;;1.85;0.20;;;;;;;13.48;67.61;97462.19;1698725;75;751236;-71
2023/05/17 08:54:41;;;;;;;0.50;0.45;;;;;;;13.39;68.47;97476.91;1709790;75;679092;-71
2023/05/17 08:57:13;;;;;;;3.70;0.20;;;;;;;13.07;67.71;97481.88;1698802;75;750368;-73
2023/05/17 08:59:45;;;;;;;0.35;0.20;;;;;;;13.18;67.73;97479.13;1707412;75;677661;-73
2023/05/17 09:02:16;;;;;;;0.30;0.30;;;;;;;13.31;70.04;97479.41;1699540;75;742182;-72
2023/05/17 09:04:54;;;;;;;1.50;0.30;;;;;;;13.25;69.35;97469.63;1709718;75;672794;-75
2023/05/17 09:07:25;;;;;;;0.40;0.40;;;;;;;13.19;71.28;97472.38;1700414;75;752776;-72
2023/05/17 09:09:57;;;;;;;0.80;0.30;;;;;;;13.02;68.14;97472.34;1708628;75;682093;-72
2023/05/17 09:12:28;;;;;;;0.30;0.20;;;;;;;13.29;70.11;97468.16;1701210;75;741745;-71
2023/05/17 09:15:16;;;;;;;2.30;0.30;;;;;;;13.10;70.35;97481.59;1696976;75;1847483;-73
2023/05/17 09:17:54;;;;;;;0.60;0.40;;;;;;;12.92;71.52;97482.81;1701542;75;754698;-72
2023/05/17 09:20:33;;;;;;;0.50;0.40;;;;;;;13.10;72.42;97473.34;1697108;75;982654;-73
2023/05/17 09:23:04;;;;;;;2.50;0.30;;;;;;;13.01;72.47;97484.56;1709287;75;688077;-73
2023/05/17 09:25:35;;;;;;;1.85;0.30;;;;;;;12.96;70.65;97485.31;1701718;75;770313;-74
2023/05/17 09:28:10;;;;;;;1.10;0.20;;;;;;;12.93;69.26;97478.81;1711485;75;681554;-72
2023/05/17 09:30:41;;;;;;;0.95;0.20;;;;;;;13.00;71.43;97483.09;1701945;75;686430;-73
2023/05/17 09:33:13;;;;;;;1.90;0.20;;;;;;;12.90;71.34;97484.56;1709896;75;677909;-75
2023/05/17 09:35:46;;;;;;;0.95;0.30;;;;;;;13.10;69.96;97478.13;1701176;75;679824;-72
2023/05/17 09:38:17;;;;;;;0.10;0.10;;;;;;;12.70;70.05;97493.72;1710421;75;684372;-72
2023/05/17 09:40:50;;;;;;;0.95;0.50;;;;;;;12.94;72.09;97496.06;1701383;75;736099;-74
2023/05/17 09:43:26;;;;;;;4.45;0.50;;;;;;;12.98;70.07;97502.81;1709556;75;685230;-72
2023/05/17 09:46:00;;;;;;;1.85;0.20;;;;;;;12.89;71.57;97507.78;1699897;75;756402;-71
2023/05/17 09:48:31;;;;;;;2.70;0.50;;;;;;;12.80;71.67;97511.50;1695921;75;1850593;-71
2023/05/17 09:51:04;;;;;;;1.30;0.40;;;;;;;12.76;69.41;97483.53;1700408;75;745421;-73
2023/05/17 09:53:40;;;;;;;0.20;0.20;;;;;;;12.79;69.44;97516.25;1709930;75;678373;-72
2023/05/17 09:56:12;;;;;;;0.20;0.20;;;;;;;12.87;66.97;97502.78;1700209;75;775293;-71
2023/05/17 09:58:42;;;;;;;0.30;0.30;;;;;;;12.65;67.67;97503.47;1709273;75;680571;-74
2023/05/17 10:01:13;;;;;;;2.15;0.40;;;;;;;12.76;68.85;97505.50;1700392;75;750897;-71
2023/05/17 10:03:43;;;;;;;2.30;0.50;;;;;;;13.11;70.86;97513.34;1710381;75;673922;-74
2023/05/17 10:06:18;;;;;;;1.20;0.60;;;;;;;12.98;68.88;97510.31;1701570;75;745902;-74
2023/05/17 10:08:55;;;;;;;0.40;0.40;;;;;;;13.34;67.31;97510.66;1704408;75;907516;-71
2023/05/17 10:11:32;;;;;;;1.90;0.40;;;;;;;13.35;67.77;97518.44;1696127;75;1860942;-71
2023/05/17 10:14:10;;;;;;;0.30;0.30;;;;;;;13.17;66.49;97516.84;1702583;75;679644;-73
2023/05/17 10:16:41;;;;;;;;;;;;;;;13.40;68.36;97523.19;1710173;75;677415;-73
2023/05/17 10:19:13;;;;;;;0.30;0.30;;;;;;;13.18;67.25;97523.88;1701368;75;686114;-74
2023/05/17 10:21:47;;;;;;;0.40;0.30;;;;;;;13.31;67.66;97530.91;1708361;75;819520;-71
2023/05/17 10:24:18;;;;;;;5.90;0.55;;;;;;;13.20;66.63;97532.38;1701653;75;739259;-74
2023/05/17 10:26:48;;;;;;;1.30;0.20;;;;;;;13.18;66.58;97528.59;1710302;75;713456;-71
2023/05/17 10:29:20;;;;;;;0.20;0.20;;;;;;;12.99;67.60;97539.31;1699395;75;862018;-75
2023/05/17 10:31:51;;;;;;;1.70;0.20;;;;;;;13.20;69.25;97537.09;1710274;75;677085;-76
2023/05/17 10:34:22;;;;;;;3.85;0.40;;;;;;;13.40;66.97;97541.69;1699350;75;858237;-71
2023/05/17 10:36:56;;;;;;;0.30;0.30;;;;;;;13.38;66.90;97541.44;1710315;75;673169;-73
2023/05/17 10:39:27;;;;;;;1.05;0.20;;;;;;;13.50;66.28;97542.19;1701242;75;739155;-70
2023/05/17 10:42:00;;;;;;;2.80;0.30;;;;;;;13.07;65.92;97539.56;1710197;75;676984;-72
2023/05/17 10:44:34;;;;;;;0.45;0.30;;;;;;;13.29;65.30;97542.41;1701558;75;760339;-74
2023/05/17 10:47:06;;;;;;;2.80;0.50;;;;;;;13.23;66.81;97541.63;1710201;75;691839;-73
2023/05/17 10:49:46;;;;;;;0.90;0.40;;;;;;;13.02;66.00;97545.81;1700102;75;754792;-72
2023/05/17 10:52:20;;;;;;;3.60;0.50;;;;;;;13.51;65.59;97549.94;1701277;75;679443;-71
2023/05/17 10:54:52;;;;;;;1.60;0.30;;;;;;;13.26;65.61;97548.13;1709099;75;758616;-71
2023/05/17 10:57:34;;;;;;;0.50;0.30;;;;;;;13.44;66.00;97561.41;1702409;75;677269;-73
2023/05/17 11:00:11;;;;;;;1.60;0.40;;;;;;;13.24;65.36;97554.09;1704540;75;1023361;-72
2023/05/17 11:02:44;;;;;;;0.65;0.35;;;;;;;13.06;65.78;97557.28;1700960;75;743354;-71
2023/05/17 11:05:27;;;;;;;1.25;0.30;;;;;;;13.19;64.34;97547.34;1708743;75;671437;-72
2023/05/17 11:08:17;;;;;;;0.30;0.20;;;;;;;13.26;64.38;97557.13;1700988;75;743960;-73
2023/05/17 11:11:12;;;;;;;1.25;0.30;;;;;;;13.06;64.64;97580.06;1699052;75;809421;-73
2023/05/17 11:13:56;;;;;;;0.80;0.30;;;;;;;13.27;66.44;97572.38;1698755;75;879775;-73
2023/05/17 11:16:36;;;;;;;0.65;0.40;;;;;;;13.20;66.29;97573.59;1709654;75;673907;-73
2023/05/17 11:19:12;;;;;;;0.70;0.20;;;;;;;13.34;66.73;97579.41;1700156;75;751304;-72
2023/05/17 11:21:49;;;;;;;0.70;0.40;;;;;;;13.26;65.16;97578.38;1700827;75;674654;-70
2023/05/17 11:24:28;;;;;;;0.50;0.30;;;;;;;13.21;64.82;97577.09;1708354;75;680509;-71
2023/05/17 11:27:00;;;;;;;0.50;0.30;;;;;;;13.26;64.64;97578.38;1700995;75;676287;-71
2023/05/17 11:29:32;;;;;;;0.90;0.20;;;;;;;13.11;65.15;97587.56;1708248;75;843438;-71
2023/05/17 11:32:07;;;;;;;1.80;0.30;;;;;;;12.92;62.91;97579.00;1700730;75;743959;-73
2023/05/17 11:34:38;;;;;;;0.30;0.20;;;;;;;13.39;63.98;97587.66;1709431;75;674875;-71
2023/05/17 11:37:12;;;;;;;0.85;0.40;;;;;;;13.31;65.17;97592.16;1700495;75;761219;-70
2023/05/17 11:40:06;;;;;;;0.60;0.30;;;;;;;13.06;63.96;97604.78;1709885;75;678904;-73
2023/05/17 11:42:38;;;;;;;0.35;0.35;;;;;;;13.00;64.97;97604.75;1699060;75;781129;-71
2023/05/17 11:45:10;;;;;;;1.40;0.60;;;;;;;12.96;64.32;97615.25;1708608;75;672709;-73
2023/05/17 11:47:43;;;;;;;0.40;0.40;;;;;;;13.05;64.42;97611.50;1696916;75;898003;-72
2023/05/17 11:50:15;;;;;;;1.05;0.45;;;;;;;13.13;64.46;97625.53;1708328;75;679939;-74
2023/05/17 11:52:46;;;;;;;1.15;0.50;;;;;;;12.95;63.74;97626.72;1700111;75;752867;-72
2023/05/17 11:55:20;;;;;;;0.30;0.20;;;;;;;12.83;64.19;97628.66;1709102;75;672532;-72
2023/05/17 11:57:51;;;;;;;2.20;0.30;;;;;;;12.79;64.09;97631.63;1697018;75;978447;-70
2023/05/17 12:00:28;;;;;;;1.00;0.40;;;;;;;12.80;64.07;97640.63;1709155;75;671205;-71
2023/05/17 12:02:59;;;;;;;2.40;0.40;;;;;;;12.81;63.77;97652.34;1700877;75;754966;-71
2023/05/17 12:05:29;;;;;;;0.40;0.30;;;;;;;13.08;63.95;97651.00;1709049;75;675999;-72
2023/05/17 12:08:00;;;;;;;1.35;0.30;;;;;;;12.70;64.17;97651.06;1700250;75;746957;-73
2023/05/17 12:10:33;;;;;;;3.10;0.50;;;;;;;12.86;63.82;97666.13;1708508;75;679546;-71
2023/05/17 12:13:04;;;;;;;0.25;0.20;;;;;;;12.95;64.24;97670.69;1700131;75;750072;-72
2023/05/17 12:15:35;;;;;;;2.70;0.40;;;;;;;12.89;64.42;97667.91;1708864;75;668700;-71
2023/05/17 12:18:05;;;;;;;0.85;0.45;;;;;;;12.86;64.30;97679.84;1700124;75;752865;-71
2023/05/17 12:20:36;;;;;;;2.20;0.30;;;;;;;12.67;63.80;97671.25;1706373;75;912587;-72
2023/05/17 12:23:07;;;;;;;1.60;0.30;;;;;;;12.78;64.08;97673.31;1700105;75;750963;-73
2023/05/17 12:25:40;;;;;;;1.55;0.90;;;;;;;12.77;65.11;97693.78;1709820;75;677936;-70
2023/05/17 12:28:21;;;;;;;0.60;0.50;;;;;;;12.81;65.69;97693.56;1698274;75;935508;-72
2023/05/17 12:30:56;;;;;;;0.30;0.20;;;;;;;12.71;65.39;97707.47;1699959;75;677466;-72
2023/05/17 12:33:27;;;;;;;0.60;0.40;;;;;;;12.76;66.82;97711.50;1711015;75;675030;-71
2023/05/17 12:35:58;;;;;;;0.80;0.30;;;;;;;12.53;68.33;97711.38;1701449;75;710754;-74
2023/05/17 12:38:30;;;;;;;0.30;0.30;;;;;;;12.63;67.57;97711.16;1710374;75;680034;-71
2023/05/17 12:41:04;;;;;;;3.60;0.80;;;;;;;12.45;71.45;97715.78;1701133;75;676666;-71
2023/05/17 12:43:37;;;;;;;4.60;0.50;;;;;;;12.27;73.12;97724.38;1707334;75;756160;-70
2023/05/17 12:46:11;;;;;;;0.70;0.50;;;;;;;12.16;77.78;97727.75;1701173;75;676040;-71
2023/05/17 12:48:42;;;;;;;1.35;0.40;;;;;;;12.11;73.96;97726.44;1708740;75;678745;-73
2023/05/17 12:51:14;;;;;;;0.85;0.50;;;;;;;12.06;81.67;97731.91;1699651;75;755131;-73
2023/05/17 12:53:46;;;;;;;1.00;0.40;;;;;;;11.99;83.46;97744.03;1708406;75;679717;-73
2023/05/17 12:56:25;;;;;;;2.80;0.50;;;;;;;11.97;84.74;97749.25;1699681;75;740673;-69
2023/05/17 12:59:09;;;;;;;0.30;0.30;;;;;;;11.98;87.49;97748.03;1700336;75;678439;-73
2023/05/17 13:01:42;;;;;;;0.60;0.40;;;;;;;11.89;100.00;97751.66;1708864;75;701767;-73
2023/05/17 13:04:13;;;;;;;0.60;0.40;;;;;;;12.07;100.00;97756.09;1700767;75;681761;-71
2023/05/17 13:06:48;;;;;;;0.80;0.50;;;;;;;12.08;100.00;97762.34;1708698;75;673762;-74
2023/05/17 13:09:19;;;;;;;2.35;1.40;;;;;;;11.93;100.00;97752.22;1699152;75;759543;-72
2023/05/17 13:11:57;;;;;;;3.40;0.90;;;;;;;11.74;100.00;97767.44;1708225;75;684207;-71
2023/05/17 13:14:39;;;;;;;0.60;0.40;;;;;;;11.37;98.60;97759.72;1699641;75;752868;-72
2023/05/17 13:17:12;;;;;;;0.90;0.50;;;;;;;11.36;100.00;97760.97;1698128;75;904359;-73
2023/05/17 13:19:42;;;;;;;0.75;0.60;;;;;;;11.23;100.00;97771.50;1708257;75;680525;-70
2023/05/17 13:22:14;;;;;;;0.90;0.60;;;;;;;11.33;100.00;97761.16;1699217;75;708339;-72
2023/05/17 13:24:45;;;;;;;0.60;0.50;;;;;;;11.15;100.00;97765.66;1707957;75;674311;-70
2023/05/17 13:27:18;;;;;;;1.20;0.60;;;;;;;11.05;100.00;97764.28;1701382;75;675975;-71
2023/05/17 13:29:48;;;;;;;1.75;0.60;;;;;;;10.93;100.00;97773.56;1708389;75;681750;-70
2023/05/17 13:32:18;;;;;;;1.20;0.80;;;;;;;10.95;100.00;97777.34;1700652;75;697731;-70
2023/05/17 13:34:48;;;;;;;1.20;0.70;;;;;;;11.00;100.00;97778.66;1708507;75;674369;-71
2023/05/17 13:37:19;;;;;;;1.30;0.60;;;;;;;10.83;100.00;97776.41;1701938;75;674805;-74
2023/05/17 13:39:50;;;;;;;1.70;0.40;;;;;;;11.13;100.00;97781.06;1710779;75;676663;-72
2023/05/17 13:42:23;;;;;;;0.25;0.20;;;;;;;11.59;100.00;97780.44;1702079;75;694964;-73
2023/05/17 13:44:53;;;;;;;0.80;0.50;;;;;;;11.17;100.00;97784.38;1708551;75;695042;-71
2023/05/17 13:47:23;;;;;;;1.20;0.50;;;;;;;10.88;100.00;97792.16;1700153;75;720497;-71
2023/05/17 13:49:53;;;;;;;0.80;0.55;;;;;;;10.90;100.00;97791.72;1707489;75;672348;-71
2023/05/17 13:52:24;;;;;;;1.75;0.65;;;;;;;11.07;100.00;97800.94;1699818;75;686601;-71
2023/05/17 13:54:54;;;;;;;1.10;0.70;;;;;;;11.03;100.00;97794.88;1708213;75;691480;-71
2023/05/17 13:57:27;;;;;;;0.80;0.70;;;;;;;11.51;100.00;97794.56;1699950;75;684880;-71
2023/05/17 13:59:57;;;;;;;0.60;0.40;;;;;;;11.80;100.00;97803.91;1708021;75;709336;-72
2023/05/17 14:02:27;;;;;;;0.90;0.50;;;;;;;11.17;100.00;97809.03;1699538;75;681052;-71
2023/05/17 14:04:57;;;;;;;1.60;0.90;;;;;;;11.17;100.00;97801.56;1708587;75;676162;-74
2023/05/17 14:07:28;;;;;;;3.00;1.10;;;;;;;10.88;100.00;97811.34;1698649;75;747959;-72
2023/05/17 14:09:58;;;;;;;1.55;1.00;;;;;;;10.93;100.00;97807.19;1708458;75;679210;-71
2023/05/17 14:12:31;;;;;;;4.15;0.70;;;;;;;10.76;97.22;97795.22;1700262;75;742089;-73
2023/05/17 14:15:01;;;;;;;0.90;0.40;;;;;;;10.83;99.97;97795.56;1707538;75;675525;-72
2023/05/17 14:17:31;;;;;;;0.60;0.60;;;;;;;10.85;96.73;97786.91;1699671;75;739349;-72
2023/05/17 14:20:02;;;;;;;1.70;0.80;;;;;;;10.79;95.13;97792.28;1707969;75;675315;-70
2023/05/17 14:22:33;;;;;;;2.65;1.35;;;;;;;10.62;90.31;97783.78;1697622;75;816481;-73
2023/05/17 14:25:03;;;;;;;2.30;1.10;;;;;;;10.73;96.76;97782.47;1708691;75;679160;-70
2023/05/17 14:27:36;;;;;;;2.50;0.90;;;;;;;10.53;81.00;97772.19;1699775;75;752291;-70
2023/05/17 14:30:07;;;;;;;1.70;0.80;;;;;;;10.70;94.88;97789.63;1709360;75;683241;-73
2023/05/17 14:32:37;;;;;;;1.10;0.70;;;;;;;10.68;89.89;97777.66;1700792;75;744682;-72
2023/05/17 14:35:10;;;;;;;0.90;0.80;;;;;;;10.81;90.54;97783.59;1709920;75;680259;-70
2023/05/17 14:37:40;;;;;;;1.65;0.80;;;;;;;10.68;86.39;97772.94;1699281;75;843387;-72
2023/05/17 14:40:12;;;;;;;0.90;0.60;;;;;;;10.57;87.76;97773.50;1709412;75;679716;-72
2023/05/17 14:42:45;;;;;;;1.75;0.60;;;;;;;10.62;83.29;97772.09;1701104;75;736410;-73
2023/05/17 14:45:15;;;;;;;0.85;0.60;;;;;;;10.48;86.59;97770.84;1709237;75;679497;-69
2023/05/17 14:47:45;;;;;;;1.45;0.60;;;;;;;10.49;86.63;97774.38;1700545;75;746375;-72
2023/05/17 14:50:15;;;;;;;0.95;0.55;;;;;;;10.43;82.64;97766.03;1709094;75;679897;-73
2023/05/17 14:52:46;;;;;;;0.70;0.60;;;;;;;10.55;87.82;97781.44;1700117;75;745395;-74
2023/05/17 14:55:16;;;;;;;0.85;0.70;;;;;;;10.48;85.38;97775.56;1709534;75;674372;-70
2023/05/17 14:57:51;;;;;;;1.60;0.50;;;;;;;10.43;84.53;97764.06;1700213;75;759443;-72
2023/05/17 15:00:23;;;;;;;1.20;0.80;;;;;;;10.26;84.92;97778.66;1708695;75;677922;-72
2023/05/17 15:02:53;;;;;;;1.05;0.50;;;;;;;10.29;83.94;97785.94;1700162;75;754424;-71
2023/05/17 15:05:24;;;;;;;1.45;0.90;;;;;;;10.24;87.82;97784.59;1709474;75;676109;-74
2023/05/17 15:07:54;;;;;;;0.90;0.70;;;;;;;10.19;84.50;97775.06;1699878;75;753474;-71
2023/05/17 15:10:25;;;;;;;3.80;1.10;;;;;;;10.18;88.18;97767.34;1708589;75;681389;-73
2023/05/17 15:12:58;;;;;;;1.10;0.75;;;;;;;10.22;86.63;97776.88;1700157;75;745298;-70
2023/05/17 15:15:28;;;;;;;1.70;0.90;;;;;;;10.40;84.94;97775.94;1709817;75;680316;-75
2023/05/17 15:17:59;;;;;;;1.20;0.85;;;;;;;10.22;86.74;97778.81;1700264;75;753091;-72
2023/05/17 15:20:29;;;;;;;0.80;0.60;;;;;;;10.36;89.30;97771.91;1708453;75;676121;-72
2023/05/17 15:22:59;;;;;;;1.55;0.80;;;;;;;10.24;86.57;97777.13;1700505;75;746813;-72
2023/05/17 15:25:29;;;;;;;1.60;0.80;;;;;;;10.10;88.69;97772.41;1709807;75;675334;-74
2023/05/17 15:28:02;;;;;;;2.55;0.80;;;;;;;10.09;88.75;97781.84;1700003;75;757653;-71
2023/05/17 15:30:32;;;;;;;0.70;0.50;;;;;;;10.05;90.42;97770.31;1708724;75;678781;-70
2023/05/17 15:33:03;;;;;;;2.75;1.00;;;;;;;9.90;90.86;97775.00;1700284;75;746609;-72
2023/05/17 15:35:36;;;;;;;2.30;0.70;;;;;;;9.96;93.23;97764.94;1709163;75;677636;-74
2023/05/17 15:38:07;;;;;;;0.60;0.50;;;;;;;9.94;91.24;97781.06;1699628;75;740309;-73
2023/05/17 15:40:38;;;;;;;0.50;0.50;;;;;;;9.83;87.99;97778.84;1707719;75;682570;-71
2023/05/17 15:43:10;;;;;;;1.40;0.55;;;;;;;9.71;90.53;97782.59;1701659;75;736813;-70
2023/05/17 15:45:41;;;;;;;0.80;0.70;;;;;;;9.85;93.17;97792.81;1709762;75;675948;-75
2023/05/17 15:48:11;;;;;;;1.00;0.40;;;;;;;9.95;92.55;97788.03;1699884;75;768809;-73
2023/05/17 15:50:41;;;;;;;2.80;0.50;;;;;;;9.72;89.26;97797.78;1708707;75;677434;-72
2023/05/17 15:53:11;;;;;;;2.05;0.60;;;;;;;9.80;89.73;97788.00;1697457;75;865185;-74
2023/05/17 15:55:42;;;;;;;1.00;0.60;;;;;;;9.97;96.80;97788.31;1709747;75;682297;-71
2023/05/17 15:58:15;;;;;;;1.00;0.80;;;;;;;10.05;92.09;97797.66;1700872;75;752352;-71
2023/05/17 16:00:45;;;;;;;1.70;0.70;;;;;;;9.87;90.91;97789.63;1709266;75;685409;-73
2023/05/17 16:03:16;;;;;;;1.20;0.65;;;;;;;10.03;90.94;97805.59;1701160;75;744972;-73
2023/05/17 16:05:47;;;;;;;0.90;0.40;;;;;;;9.71;91.13;97796.25;1710383;75;669200;-72
2023/05/17 16:08:19;;;;;;;0.55;0.50;;;;;;;9.63;96.12;97801.31;1700537;75;765329;-73
2023/05/17 16:10:49;;;;;;;0.60;0.60;;;;;;;9.68;98.98;97806.16;1707664;75;681522;-72
2023/05/17 16:13:22;;;;;;;0.60;0.50;;;;;;;9.75;89.33;97810.50;1700585;75;749156;-72
2023/05/17 16:15:52;;;;;;;0.70;0.60;;;;;;;9.54;91.14;97815.03;1707357;75;887456;-71
2023/05/17 16:18:23;;;;;;;1.35;0.65;;;;;;;9.49;88.12;97802.03;1699618;75;800176;-74
2023/05/17 16:21:01;;;;;;;0.65;0.60;;;;;;;9.47;87.92;97788.81;1709699;75;673406;-73
2023/05/17 16:23:31;;;;;;;0.40;0.40;;;;;;;9.48;87.69;97811.44;1699305;75;748196;-73
2023/05/17 16:26:01;;;;;;;0.60;0.40;;;;;;;9.60;87.52;97819.41;1709388;75;679400;-74
2023/05/17 16:28:35;;;;;;;1.25;0.40;;;;;;;9.55;87.50;97819.31;1701060;75;754426;-73
2023/05/17 16:31:07;;;;;;;2.70;1.00;;;;;;;9.57;85.35;97811.38;1709676;75;680929;-73
2023/05/17 16:33:37;;;;;;;1.00;0.80;;;;;;;9.46;83.54;97819.34;1700700;75;747057;-73
2023/05/17 16:36:11;;;;;;;1.30;0.70;;;;;;;9.52;86.50;97831.88;1709459;75;682062;-74
2023/05/17 16:38:41;;;;;;;0.95;0.70;;;;;;;9.57;85.12;97841.44;1701304;75;739930;-71
2023/05/17 16:41:11;;;;;;;0.75;0.45;;;;;;;9.52;82.18;97834.63;1697220;75;1708501;-74
2023/05/17 16:43:44;;;;;;;2.80;0.60;;;;;;;9.58;82.70;97840.22;1700895;75;755709;-73
2023/05/17 16:46:14;;;;;;;0.50;0.50;;;;;;;9.54;82.32;97834.91;1709598;75;687578;-74
2023/05/17 16:48:46;;;;;;;0.55;0.50;;;;;;;9.48;82.04;97833.31;1702204;75;743383;-74
2023/05/17 16:51:16;;;;;;;0.35;0.35;;;;;;;9.62;83.31;97849.03;1709737;75;793232;-72
2023/05/17 16:53:46;;;;;;;0.50;0.50;;;;;;;9.48;82.56;97853.19;1701644;75;759675;-71
2023/05/17 16:56:17;;;;;;;0.50;0.50;;;;;;;9.62;82.86;97849.03;1709840;75;701581;-73
2023/05/17 16:58:49;;;;;;;0.50;0.50;;;;;;;9.58;80.56;97849.19;1699218;75;875683;-71
2023/05/17 17:01:20;;;;;;;2.40;0.60;;;;;;;9.51;81.68;97843.31;1708464;75;708668;-74
2023/05/17 17:03:50;;;;;;;0.45;0.40;;;;;;;9.51;81.93;97856.97;1700488;75;734256;-73
2023/05/17 17:06:20;;;;;;;0.40;0.40;;;;;;;9.59;81.92;97869.06;1709425;75;677790;-74
2023/05/17 17:08:50;;;;;;;0.95;0.30;;;;;;;9.55;78.46;97868.50;1700608;75;740486;-73
2023/05/17 17:11:23;;;;;;;1.50;0.70;;;;;;;9.53;82.21;97870.94;1709876;75;678711;-71
2023/05/17 17:13:56;;;;;;;0.55;0.50;;;;;;;9.51;80.03;97865.91;1701238;75;749134;-73
2023/05/17 17:16:26;;;;;;;0.60;0.60;;;;;;;9.55;80.16;97865.75;1709362;75;675554;-71
2023/05/17 17:18:56;;;;;;;0.75;0.55;;;;;;;9.58;80.53;97873.03;1699650;75;754465;-73
2023/05/17 17:21:27;;;;;;;0.45;0.45;;;;;;;9.58;83.01;97876.50;1710158;75;676250;-72
2023/05/17 17:23:57;;;;;;;1.20;0.70;;;;;;;9.62;82.10;97878.31;1698022;75;756757;-73
2023/05/17 17:26:27;;;;;;;1.90;1.50;;;;;;;9.58;80.24;97881.97;1709308;75;675513;-73
2023/05/17 17:29:00;;;;;;;1.00;0.70;;;;;;;9.63;79.55;97888.03;1701452;75;745619;-73
2023/05/17 17:31:31;;;;;;;1.70;0.70;;;;;;;9.63;80.65;97880.59;1710450;75;676437;-72
2023/05/17 17:34:01;;;;;;;1.00;0.70;;;;;;;9.58;81.34;97886.69;1686707;75;1891494;-71
2023/05/17 17:36:31;;;;;;;0.90;0.60;;;;;;;9.58;80.19;97890.19;1710434;75;671796;-73
2023/05/17 17:39:02;;;;;;;1.25;0.80;;;;;;;9.62;81.62;97897.44;1700244;75;748930;-73
2023/05/17 17:41:32;;;;;;;3.10;0.60;;;;;;;9.67;80.56;97894.06;1709164;75;672998;-70
2023/05/17 17:44:05;;;;;;;0.70;0.40;;;;;;;9.68;79.19;97890.13;1701258;75;760540;-72
2023/05/17 17:46:35;;;;;;;2.60;0.60;;;;;;;9.70;77.76;97898.63;1707089;75;970813;-74
2023/05/17 17:49:05;;;;;;;0.90;0.50;;;;;;;9.70;78.24;97893.16;1674509;75;2928819;-73
2023/05/17 17:51:35;;;;;;;0.90;0.80;;;;;;;9.69;78.19;97897.09;1710396;75;672276;-72
2023/05/17 17:54:07;;;;;;;2.55;0.60;;;;;;;9.72;77.72;97888.75;1700097;75;822950;-73
2023/05/17 17:56:37;;;;;;;1.70;1.10;;;;;;;9.70;79.54;97899.38;1711536;75;684910;-72
2023/05/17 17:59:11;;;;;;;4.30;0.80;;;;;;;9.69;77.86;97889.69;1702772;75;757209;-72
2023/05/17 18:01:41;;;;;;;0.60;0.60;;;;;;;9.68;78.09;97888.16;1711805;75;686837;-71
2023/05/17 18:04:12;;;;;;;1.15;0.90;;;;;;;9.73;78.02;97892.22;1618233;75;7763935;-71
2023/05/17 18:06:44;;;;;;;1.70;0.90;;;;;;;9.73;78.75;97890.25;1710773;75;726665;-75
2023/05/17 18:09:14;;;;;;;0.65;0.65;;;;;;;9.81;77.19;97901.59;1698969;75;867656;-71
2023/05/17 18:11:44;;;;;;;0.60;0.50;;;;;;;9.86;76.26;97892.00;1697080;75;1817986;-71
2023/05/17 18:14:18;;;;;;;0.65;0.60;;;;;;;9.88;74.78;97897.75;1701398;75;734184;-75
2023/05/17 18:16:48;;;;;;;3.20;0.60;;;;;;;9.90;76.51;97903.53;1709762;75;678885;-73
2023/05/17 18:19:18;;;;;;;0.50;0.50;;;;;;;9.81;76.28;97887.91;1698859;75;756898;-71
2023/05/17 18:21:49;;;;;;;0.95;0.70;;;;;;;9.84;76.16;97897.16;1709388;75;710003;-72
2023/05/17 18:24:20;;;;;;;0.50;0.40;;;;;;;9.88;76.67;97889.56;1699001;75;754694;-72
2023/05/17 18:26:53;;;;;;;0.50;0.50;;;;;;;9.86;74.88;97903.72;1709286;75;679599;-73
2023/05/17 18:29:26;;;;;;;1.30;0.70;;;;;;;9.91;75.56;97908.53;1698291;75;829000;-73
2023/05/17 18:31:58;;;;;;;1.10;1.00;;;;;;;9.85;76.83;97913.13;1708718;75;718930;-74
2023/05/17 18:34:28;;;;;;;1.05;0.60;;;;;;;9.87;75.71;97918.13;1700930;75;734203;-74
2023/05/17 18:36:58;;;;;;;4.05;2.45;;;;;;;9.92;75.91;97912.78;1707750;75;809559;-72
2023/05/17 18:39:29;;;;;;;0.50;0.50;;;;;;;9.97;73.33;97920.34;1700842;75;759600;-74
2023/05/17 18:42:01;;;;;;;0.80;0.70;;;;;;;9.99;74.75;97920.63;1710367;75;677931;-73
2023/05/17 18:44:34;;;;;;;2.50;0.70;;;;;;;9.93;75.73;97927.97;1701601;75;746252;-72
2023/05/17 18:47:05;;;;;;;1.20;0.80;;;;;;;9.84;76.72;97930.75;1696417;75;1765262;-72
2023/05/17 18:49:35;;;;;;;1.00;0.60;;;;;;;9.97;75.44;97938.75;1698528;75;799539;-72
2023/05/17 18:52:05;;;;;;;0.80;0.70;;;;;;;9.82;77.37;97946.88;1708682;75;713036;-72
2023/05/17 18:54:36;;;;;;;1.35;0.80;;;;;;;9.85;76.51;97948.66;1698961;75;796511;-73
2023/05/17 18:57:10;;;;;;;1.75;0.80;;;;;;;9.94;76.91;97950.63;1683106;75;2886899;-72
2023/05/17 18:59:43;;;;;;;1.55;1.15;;;;;;;9.85;75.93;97959.59;1700022;75;767632;-73
2023/05/17 19:02:13;;;;;;;0.85;0.60;;;;;;;10.00;76.53;97973.34;1708902;75;726136;-72
2023/05/17 19:04:43;;;;;;;0.50;0.50;;;;;;;9.87;76.06;97964.63;1697052;75;981730;-74
2023/05/17 19:07:13;;;;;;;1.05;0.60;;;;;;;9.96;73.42;97967.31;1709690;75;679862;-71